Dendermonde, Belgium
Current Conditions -  °F | °C
As of 3:50 AM on Monday 24 Nov 2014 (Local Time) from EBAW Reporting Station
Rain Showers Rain Showers  
Wind Chill: 43°   Ceiling: 900
Heat Index: 48°   Visibility: 6mi
Dew Point: 45°   Wind: 13mph
Humidity: 87%   Direction: 320°NW
Pressure: 30.15"   Gusts: NA
Location:  51.03°N, 4.1°E
Report Text: EBAW 240250Z AUTO 32011KT 9999 -SHRA SCT006/// BKN009/// BKN011/// 09/07 Q1021
Loading
Personal Weather Stations






























Interactive Weather Map New forecast layout! Learn more

10-Day Weather Forecast

Advertisements
Track Severe Weather on mobile